메인 페이지
METAR-TAF:

METAR-TAF

공항 :

이스트미들랜즈, 잉글랜드

위도: 52-50N, 경도: 001-20W, 고도: 94m

현재 날씨관측

예보는 19분 전, 15:50시(UTC)에 발표되었습니다.
남남동5kt동남동풍과 풍을 오가는
온도 21°C
습도 46%
기압 1018 hPa
시정 10km 이상
고도 4500ft 상공 구름 조금

METAR: EGNX 201550Z 15005KT 110V190 9999 FEW045 21/09 Q1018

시각: 17:09 (16:09 UTC)

예보

예보는 5 시간 14분 전, 10:55시(UTC)에 발표되었습니다.
예보 대상 시간: 20일 12시부터 21일 12시까지 (UTC)
5kt
시정 10km 이상
고도 3500ft 상공 구름 조금
전환 중
21일 10시부터 21일 12시까지 (UTC)
남남서10kt

TAF: EGNX 201055Z 2012/2112 26005KT 9999 FEW035 BECMG 2110/2112 20010KT

4,000개 이상의 공항 관측 자료 및 예보 (METAR 및 TAF 보고).

지도상에서 검색 가능한 기상관측소가 노란 점과 빨간 점으로 표시되어 있습니다.

기상관측소 명을 보려면 표시 위로 마우스를 이동하세요.

날씨 관측과 예보를 보려면 클릭하세요.

지도 변경 : 확대하려면 엑스 표시가 있는 녹색 버튼, 축소하려면 빼기 표시가 있는 녹색 버튼, 다음 페이지의 지도를 보려면 녹색 화살표를 클릭하세요.


METAR-TAF: